Sacramento, California
Traffic Map
Current Weather Conditions
Sacramento, California
Clear
Clear
67°
Feels Like: 67°
Wind Chill: 67° Ceiling: Unl
Heat Index: 67° Visibility: 10mi
Dew Point: 56° Wind: 5mph
Humidity: 68% Direction: ° ()
Pressure: 29.88in Gusts: 0mph
Raw Report DataKSAC 290753Z AUTO VRB04KT 10SM CLR 19/13 A2988 RMK AO2 SLP118 T01940133 403610172
Traffic Incident Summary
Active as of:
Severity:
Category:
InformationThere was an issue retrieving the traffic information for this location. Please try a different location or try again shortly.
Advertisements
Track Severe Weather on mobile